Time;durP1;ratioP1;P1;durP2;ratioP2;P2;SDS_P1;SDS_P2;PMS_P1;PMS_P2;Temp;Humidity;BMP_temperature;BMP_pressure;BME280_temperature;BME280_humidity;BME280_pressure;Samples;Min_cycle;Max_cycle;Signal;HPM_P1;HPM_P2
2020/12/11 00:00:16;;;;;;;15.30;12.20;;;;;;;4.11;80.36;95206.97;5090778;28;20461;-59
2020/12/11 00:02:42;;;;;;;17.00;13.00;;;;;;;3.80;80.30;95208.88;5072683;28;20410;-61
2020/12/11 00:05:07;;;;;;;15.40;13.43;;;;;;;3.92;80.52;95202.75;5072502;28;20469;-60
2020/12/11 00:07:40;;;;;;;18.10;14.10;;;;;;;3.82;81.46;95202.44;5072405;28;20169;-58
2020/12/11 00:10:08;;;;;;;17.83;14.60;;;;;;;3.98;81.63;95198.53;5071536;28;20362;-59
2020/12/11 00:12:34;;;;;;;17.63;14.20;;;;;;;3.87;81.98;95201.81;5075706;28;20415;-59
2020/12/11 00:15:00;;;;;;;17.53;13.93;;;;;;;4.26;80.78;95196.25;5093026;28;20945;-59
2020/12/11 00:17:26;;;;;;;17.27;13.80;;;;;;;4.07;80.45;95208.44;5073687;28;20202;-60
2020/12/11 00:19:55;;;;;;;19.53;14.70;;;;;;;3.94;80.88;95210.34;5072534;28;20942;-61
2020/12/11 00:22:21;;;;;;;16.87;13.90;;;;;;;4.02;81.28;95205.66;5072807;28;20419;-61
2020/12/11 00:24:50;;;;;;;18.10;14.27;;;;;;;3.99;81.21;95203.50;5073215;28;20419;-60
2020/12/11 00:27:16;;;;;;;16.27;13.00;;;;;;;4.25;80.40;95194.66;5075639;28;20429;-60
2020/12/11 00:29:42;;;;;;;16.23;13.60;;;;;;;4.28;79.89;95194.22;5076131;28;20518;-60
2020/12/11 00:32:07;;;;;;;15.70;12.93;;;;;;;4.11;79.99;95198.41;5075470;28;20262;-60
2020/12/11 00:34:34;;;;;;;15.30;12.13;;;;;;;4.08;78.88;95204.00;5075798;28;20254;-59
2020/12/11 00:36:59;;;;;;;13.10;11.70;;;;;;;4.19;79.92;95211.09;5082936;28;20202;-61
2020/12/11 00:39:25;;;;;;;13.33;11.50;;;;;;;3.85;79.30;95206.41;5096358;28;20575;-59
2020/12/11 00:41:50;;;;;;;15.33;12.83;;;;;;;3.90;79.05;95206.56;5095635;28;20177;-61
2020/12/11 00:44:16;;;;;;;12.57;11.17;;;;;;;3.69;79.22;95210.34;5094183;28;20259;-61
2020/12/11 00:46:41;;;;;;;13.30;11.43;;;;;;;3.75;79.59;95195.72;5095648;28;20182;-59
2020/12/11 00:49:07;;;;;;;15.03;13.30;;;;;;;3.93;79.59;95183.56;5082622;28;20197;-61
2020/12/11 00:51:32;;;;;;;14.23;12.43;;;;;;;3.99;79.46;95187.91;5075872;28;20183;-59
2020/12/11 00:53:57;;;;;;;13.60;12.17;;;;;;;4.07;78.83;95179.84;5076963;28;20177;-59
2020/12/11 00:56:23;;;;;;;12.33;10.80;;;;;;;3.68;80.00;95171.59;5075107;28;20640;-60
2020/12/11 00:58:49;;;;;;;13.73;12.43;;;;;;;3.71;80.06;95166.78;5079017;28;20168;-60
2020/12/11 01:01:14;;;;;;;13.33;11.93;;;;;;;4.07;79.15;95164.25;5095818;28;20207;-59
2020/12/11 01:03:40;;;;;;;13.77;11.43;;;;;;;3.79;79.12;95157.91;5080542;28;20168;-60
2020/12/11 01:06:05;;;;;;;15.23;12.90;;;;;;;4.02;79.16;95156.28;5075620;28;20172;-60
2020/12/11 01:08:30;;;;;;;11.60;10.43;;;;;;;3.79;77.80;95157.91;5078150;28;20674;-59
2020/12/11 01:10:56;;;;;;;12.37;11.00;;;;;;;3.49;79.57;95162.97;5095619;28;20241;-58
2020/12/11 01:13:21;;;;;;;14.77;10.87;;;;;;;3.32;80.02;95154.09;5095697;28;20173;-59
2020/12/11 01:15:46;;;;;;;11.97;10.77;;;;;;;3.28;80.76;95137.34;5094799;28;20262;-59
2020/12/11 01:18:12;;;;;;;11.83;10.73;;;;;;;3.33;81.26;95139.31;5081288;28;20750;-61
2020/12/11 01:20:37;;;;;;;13.73;12.23;;;;;;;3.49;80.08;95137.00;5073834;28;20193;-61
2020/12/11 01:23:03;;;;;;;12.60;11.00;;;;;;;3.51;79.78;95129.81;5075228;28;20217;-61
2020/12/11 01:25:28;;;;;;;10.90;9.77;;;;;;;3.59;79.40;95126.13;5075260;28;20640;-59
2020/12/11 01:27:53;;;;;;;14.23;12.00;;;;;;;3.69;79.22;95122.06;5074748;28;20179;-59
2020/12/11 01:30:19;;;;;;;12.13;10.80;;;;;;;3.82;79.45;95110.75;5074837;28;20197;-60
2020/12/11 01:32:44;;;;;;;13.50;12.10;;;;;;;3.87;79.51;95106.50;5074830;28;20261;-59
2020/12/11 01:35:09;;;;;;;13.20;11.00;;;;;;;3.93;79.08;95097.81;5074897;28;20184;-61
2020/12/11 01:37:35;;;;;;;12.87;11.57;;;;;;;3.88;78.88;95102.88;5073182;28;20244;-61
2020/12/11 01:40:00;;;;;;;12.73;10.93;;;;;;;3.89;78.31;95096.69;5074861;28;20189;-61
2020/12/11 01:42:26;;;;;;;11.93;10.70;;;;;;;3.72;78.44;95094.84;5078155;28;20674;-59
2020/12/11 01:44:53;;;;;;;12.30;10.80;;;;;;;3.55;79.37;95102.38;5094850;28;20162;-60
2020/12/11 01:47:22;;;;;;;13.30;11.67;;;;;;;3.64;79.70;95106.31;5083721;28;20173;-60
2020/12/11 01:49:49;;;;;;;13.90;12.40;;;;;;;3.56;80.15;95108.38;5074591;28;20492;-60
2020/12/11 01:52:16;;;;;;;12.20;10.90;;;;;;;3.28;81.11;95114.00;5074722;28;20416;-59
2020/12/11 01:54:42;;;;;;;14.07;11.53;;;;;;;3.27;82.05;95117.59;5074644;28;20487;-61
2020/12/11 01:57:16;;;;;;;14.20;11.00;;;;;;;3.47;81.02;95109.66;5074682;28;20541;-60
2020/12/11 01:59:42;;;;;;;13.10;11.87;;;;;;;3.43;80.89;95109.28;5086570;28;20431;-61
2020/12/11 02:02:13;;;;;;;13.50;11.77;;;;;;;2.97;83.04;95101.06;5087809;28;20428;-59
2020/12/11 02:04:38;;;;;;;13.30;11.87;;;;;;;3.32;82.29;95091.81;5074306;28;20963;-59
2020/12/11 02:07:05;;;;;;;11.87;10.60;;;;;;;3.30;82.01;95088.63;5074122;28;20397;-59
2020/12/11 02:09:35;;;;;;;14.37;12.27;;;;;;;3.32;81.89;95091.81;5074132;28;20184;-59
2020/12/11 02:12:02;;;;;;;14.53;12.60;;;;;;;3.50;80.80;95085.84;5089746;28;20931;-59
2020/12/11 02:14:29;;;;;;;13.83;11.50;;;;;;;3.42;81.33;95075.75;5094396;28;20406;-61
2020/12/11 02:16:58;;;;;;;13.57;11.80;;;;;;;3.37;81.19;95071.19;5094131;28;20453;-59
2020/12/11 02:19:32;;;;;;;12.97;11.60;;;;;;;3.54;80.66;95068.84;5082691;28;20866;-60
2020/12/11 02:22:02;;;;;;;13.27;11.97;;;;;;;3.51;81.01;95062.31;5074167;28;20949;-61
2020/12/11 02:24:27;;;;;;;14.00;11.67;;;;;;;3.33;81.07;95059.69;5075224;28;20422;-60
2020/12/11 02:26:57;;;;;;;15.37;12.50;;;;;;;3.35;81.69;95057.66;5073391;28;20741;-60
2020/12/11 02:29:23;;;;;;;16.27;12.30;;;;;;;3.38;81.43;95049.44;5073886;28;20194;-61
2020/12/11 02:31:49;;;;;;;15.00;12.70;;;;;;;3.11;82.35;95042.91;5081543;28;20422;-60
2020/12/11 02:34:15;;;;;;;15.77;11.80;;;;;;;2.99;82.81;95039.38;5073901;28;20413;-59
2020/12/11 02:36:41;;;;;;;14.07;11.90;;;;;;;3.15;82.24;95031.09;5087020;28;20480;-59
2020/12/11 02:39:06;;;;;;;16.50;13.20;;;;;;;3.26;82.14;95021.81;5073227;28;20209;-59
2020/12/11 02:41:32;;;;;;;17.40;14.03;;;;;;;3.26;82.17;95029.59;5073701;28;20653;-60
2020/12/11 02:43:57;;;;;;;14.40;12.77;;;;;;;3.12;82.27;95014.13;5073960;28;20174;-60
2020/12/11 02:46:23;;;;;;;15.50;13.13;;;;;;;3.08;82.95;95019.94;5073416;28;20163;-60
2020/12/11 02:48:48;;;;;;;15.33;12.60;;;;;;;3.28;82.45;95009.41;5073216;28;20173;-59
2020/12/11 02:51:13;;;;;;;16.20;13.23;;;;;;;3.21;82.94;95003.50;5073629;28;20248;-61
2020/12/11 02:53:39;;;;;;;16.00;13.17;;;;;;;3.44;81.94;94986.31;5072813;28;20590;-60
2020/12/11 02:56:05;;;;;;;15.53;13.00;;;;;;;3.62;81.80;94981.13;5073513;28;20171;-61
2020/12/11 02:58:30;;;;;;;15.17;13.57;;;;;;;3.68;81.28;94966.44;5072775;28;20197;-61
2020/12/11 03:00:56;;;;;;;16.60;13.70;;;;;;;3.71;81.39;94966.03;5073118;28;20630;-59
2020/12/11 03:03:21;;;;;;;18.47;14.53;;;;;;;3.88;80.62;94964.41;5073463;28;20193;-60
2020/12/11 03:05:46;;;;;;;16.40;14.30;;;;;;;3.69;80.88;94974.03;5073151;28;20222;-60
2020/12/11 03:08:12;;;;;;;17.20;13.70;;;;;;;3.39;81.76;94974.97;5089426;28;20263;-60
2020/12/11 03:10:37;;;;;;;16.60;13.70;;;;;;;3.38;82.00;94994.94;5093360;28;20179;-60
2020/12/11 03:13:03;;;;;;;15.87;13.50;;;;;;;3.12;83.09;94992.59;5073945;28;20178;-59
2020/12/11 03:15:28;;;;;;;18.77;14.17;;;;;;;2.96;84.35;94986.16;5073445;28;20651;-60
2020/12/11 03:17:53;;;;;;;18.07;14.70;;;;;;;3.10;83.65;94986.81;5072769;28;20192;-61
2020/12/11 03:20:25;;;;;;;19.87;14.67;;;;;;;2.97;83.94;94985.13;5073271;28;20186;-59
2020/12/11 03:22:52;;;;;;;17.43;14.10;;;;;;;2.93;84.58;94975.41;5073428;28;20521;-60
2020/12/11 03:25:18;;;;;;;18.13;14.70;;;;;;;3.01;84.04;94975.13;5073383;28;20401;-61
2020/12/11 03:27:44;;;;;;;18.77;14.50;;;;;;;3.10;84.19;94977.22;5072396;28;20500;-59
2020/12/11 03:30:09;;;;;;;17.77;14.70;;;;;;;2.79;84.77;94976.53;5073189;28;20426;-60
2020/12/11 03:32:35;;;;;;;17.50;14.53;;;;;;;2.91;84.65;94967.03;5071320;28;20538;-61
2020/12/11 03:35:00;;;;;;;21.90;15.40;;;;;;;2.91;84.24;94962.66;5073182;28;20174;-60
2020/12/11 03:37:25;;;;;;;19.40;14.77;;;;;;;2.46;86.19;94958.63;5072569;28;20250;-59
2020/12/11 03:39:51;;;;;;;21.33;16.07;;;;;;;2.42;87.02;94959.25;5073161;28;20743;-60
2020/12/11 03:42:16;;;;;;;19.37;15.37;;;;;;;2.59;85.82;94949.97;5073042;28;20173;-59
2020/12/11 03:44:41;;;;;;;21.77;15.10;;;;;;;2.47;85.96;94943.84;5073229;28;20179;-61
2020/12/11 03:47:07;;;;;;;24.77;16.20;;;;;;;2.33;86.01;94943.16;5074808;28;20241;-60
2020/12/11 03:49:32;;;;;;;25.43;15.53;;;;;;;2.20;86.77;94924.31;5084754;28;20683;-60
2020/12/11 03:51:57;;;;;;;20.67;15.70;;;;;;;2.15;87.26;94924.16;5090580;28;20243;-60
2020/12/11 03:54:23;;;;;;;23.90;16.53;;;;;;;2.43;85.52;94914.97;5092621;28;20226;-61
2020/12/11 03:56:48;;;;;;;22.30;15.17;;;;;;;2.51;86.10;94908.75;5092501;28;20573;-60
2020/12/11 03:59:14;;;;;;;21.00;15.93;;;;;;;2.80;84.91;94903.72;5085621;28;20191;-61
2020/12/11 04:01:40;;;;;;;23.70;17.07;;;;;;;2.87;83.23;94904.44;5075749;28;20184;-61
2020/12/11 04:04:05;;;;;;;23.50;16.57;;;;;;;2.92;84.10;94901.19;5076212;28;20413;-61
2020/12/11 04:06:30;;;;;;;22.27;14.40;;;;;;;2.41;84.75;94895.47;5075516;28;20672;-61
2020/12/11 04:08:56;;;;;;;22.27;15.97;;;;;;;2.51;84.78;94894.00;5085736;28;20198;-61
2020/12/11 04:11:21;;;;;;;21.07;16.17;;;;;;;2.34;85.08;94892.91;5076007;28;20183;-60
2020/12/11 04:13:48;;;;;;;21.67;15.17;;;;;;;2.28;85.51;94880.03;5082895;28;20208;-60
2020/12/11 04:16:13;;;;;;;20.53;15.00;;;;;;;2.27;86.03;94868.88;5089387;28;20278;-61
2020/12/11 04:18:39;;;;;;;21.50;15.10;;;;;;;2.01;87.00;94859.50;5079749;28;20460;-60
2020/12/11 04:21:04;;;;;;;20.73;14.67;;;;;;;2.38;85.78;94855.22;5087616;28;20170;-60
2020/12/11 04:23:29;;;;;;;24.13;16.00;;;;;;;2.37;85.35;94856.25;5096102;28;20662;-60
2020/12/11 04:25:55;;;;;;;24.73;17.93;;;;;;;2.64;84.51;94859.38;5096538;28;20162;-60
2020/12/11 04:28:21;;;;;;;25.67;16.57;;;;;;;2.35;85.20;94868.63;5092421;28;20170;-60
2020/12/11 04:30:47;;;;;;;22.83;16.03;;;;;;;2.40;84.75;94865.38;5090592;28;20200;-60
2020/12/11 04:33:12;;;;;;;21.93;15.10;;;;;;;2.10;86.16;94866.00;5075972;28;20424;-60
2020/12/11 04:35:37;;;;;;;23.70;16.90;;;;;;;2.18;85.71;94857.19;5075826;28;20171;-59
2020/12/11 04:38:04;;;;;;;24.50;16.20;;;;;;;2.24;85.58;94865.91;5091166;28;20534;-60
2020/12/11 04:40:30;;;;;;;22.37;15.17;;;;;;;2.04;86.04;94868.66;5095758;28;20196;-60
2020/12/11 04:42:55;;;;;;;25.60;17.00;;;;;;;2.18;86.52;94883.09;5078673;28;20783;-59
2020/12/11 04:45:22;;;;;;;23.87;15.67;;;;;;;2.30;85.48;94878.03;5075703;28;20248;-61
2020/12/11 04:47:47;;;;;;;27.70;17.60;;;;;;;2.05;85.95;94867.63;5079085;28;20200;-61
2020/12/11 04:50:17;;;;;;;25.03;16.07;;;;;;;2.29;85.73;94863.47;5075585;28;20993;-61
2020/12/11 04:52:48;;;;;;;24.23;16.33;;;;;;;2.33;84.42;94865.44;5075962;28;20245;-58
2020/12/11 04:55:19;;;;;;;23.60;15.57;;;;;;;2.21;85.17;94866.34;5076615;28;20442;-58
2020/12/11 04:57:50;;;;;;;24.67;16.07;;;;;;;2.12;85.01;94857.25;5055300;28;20453;-59
2020/12/11 05:00:17;;;;;;;24.53;15.83;;;;;;;1.97;85.83;94848.00;5081117;28;20858;-61
2020/12/11 05:02:44;;;;;;;25.93;18.37;;;;;;;2.17;85.46;94847.03;5075642;28;21147;-59
2020/12/11 05:05:10;;;;;;;24.87;16.77;;;;;;;2.09;84.63;94838.53;5075209;28;20423;-59
2020/12/11 05:07:36;;;;;;;23.40;16.07;;;;;;;2.03;86.12;94836.78;5074937;28;20413;-58
2020/12/11 05:10:07;;;;;;;21.77;15.20;;;;;;;2.27;84.28;94824.03;5084516;28;20439;-59
2020/12/11 05:12:34;;;;;;;20.83;15.50;;;;;;;2.16;84.09;94829.94;5090857;28;20459;-59
2020/12/11 05:15:11;;;;;;;23.70;16.17;;;;;;;2.14;84.16;94830.13;5075131;28;20504;-59
2020/12/11 05:17:41;;;;;;;23.47;15.37;;;;;;;2.06;83.80;94828.59;5075063;28;20461;-61
2020/12/11 05:20:09;;;;;;;27.40;16.23;;;;;;;1.90;84.88;94833.50;5073588;28;20429;-61
2020/12/11 05:22:47;;;;;;;26.20;16.20;;;;;;;1.91;85.31;94829.91;5076642;28;20420;-59
2020/12/11 05:25:21;;;;;;;25.27;15.27;;;;;;;1.03;89.22;94826.38;5090552;28;20504;-60
2020/12/11 05:27:47;;;;;;;20.97;14.70;;;;;;;1.21;89.13;94830.91;5073160;28;20464;-60
2020/12/11 05:30:13;;;;;;;24.37;16.07;;;;;;;1.27;88.35;94834.47;5075900;28;20476;-59
2020/12/11 05:32:49;;;;;;;24.73;16.10;;;;;;;1.27;88.65;94832.66;5085993;28;20343;-60
2020/12/11 05:35:17;;;;;;;27.40;16.67;;;;;;;1.52;87.26;94838.69;5074784;28;20429;-60
2020/12/11 05:38:04;;;;;;;22.00;14.57;;;;;;;1.79;86.11;94839.34;5082724;28;20484;-61
2020/12/11 05:40:40;;;;;;;24.33;15.93;;;;;;;1.83;85.67;94832.75;5074794;28;20791;-60
2020/12/11 05:43:12;;;;;;;23.40;16.37;;;;;;;1.54;86.50;94834.09;5074881;28;20552;-61
2020/12/11 05:45:47;;;;;;;25.00;16.80;;;;;;;1.76;85.79;94835.38;5074765;28;20896;-61
2020/12/11 05:48:13;;;;;;;22.20;15.20;;;;;;;1.81;85.20;94840.72;5074540;28;20552;-62
2020/12/11 05:50:38;;;;;;;21.90;15.20;;;;;;;1.89;84.74;94831.91;5080300;28;20532;-60
2020/12/11 05:53:04;;;;;;;23.90;16.47;;;;;;;2.00;84.92;94818.28;5095089;28;20520;-59
2020/12/11 05:55:29;;;;;;;23.30;15.10;;;;;;;2.26;84.41;94817.28;5091364;28;20181;-60
2020/12/11 05:57:56;;;;;;;23.40;16.50;;;;;;;2.16;83.87;94822.94;5073977;28;20199;-59
2020/12/11 06:00:22;;;;;;;22.73;14.67;;;;;;;1.83;84.66;94830.16;5074331;28;20198;-59
2020/12/11 06:02:50;;;;;;;22.90;15.70;;;;;;;1.88;85.36;94814.78;5074191;28;20923;-59
2020/12/11 06:05:17;;;;;;;25.50;16.00;;;;;;;2.11;83.42;94820.19;5074806;28;20217;-60
2020/12/11 06:07:44;;;;;;;20.50;14.17;;;;;;;2.04;83.89;94811.69;5093805;28;20921;-59
2020/12/11 06:10:13;;;;;;;21.27;16.17;;;;;;;1.97;83.74;94816.13;5082661;28;20849;-59
2020/12/11 06:12:39;;;;;;;24.33;16.20;;;;;;;2.03;84.17;94820.44;5074251;28;20469;-60
2020/12/11 06:15:22;;;;;;;24.17;16.53;;;;;;;1.69;85.22;94826.84;5088865;28;20416;-59
2020/12/11 06:18:06;;;;;;;22.57;14.07;;;;;;;1.50;85.51;94822.59;5093670;28;20506;-59
2020/12/11 06:20:34;;;;;;;20.47;15.20;;;;;;;1.33;86.07;94812.94;5092517;28;20526;-59
2020/12/11 06:23:21;;;;;;;20.27;14.10;;;;;;;1.33;87.06;94805.97;5079119;28;20945;-60
2020/12/11 06:25:54;;;;;;;23.47;15.80;;;;;;;1.56;86.30;94793.28;5073673;28;20428;-60
2020/12/11 06:28:39;;;;;;;25.83;16.03;;;;;;;1.91;85.40;94785.88;5072667;28;20433;-59
2020/12/11 06:31:09;;;;;;;22.93;15.37;;;;;;;1.88;85.43;94781.13;5066753;28;20420;-60
2020/12/11 06:33:37;;;;;;;21.60;15.20;;;;;;;1.98;85.46;94774.47;5073755;28;20909;-59
2020/12/11 06:36:03;;;;;;;24.43;16.07;;;;;;;2.26;83.88;94766.25;5073690;28;20515;-61
2020/12/11 06:38:44;;;;;;;22.53;14.80;;;;;;;2.28;83.84;94766.03;5073325;28;20462;-60
2020/12/11 06:41:10;;;;;;;22.70;15.80;;;;;;;2.42;82.94;94762.31;5085860;28;20416;-61
2020/12/11 06:43:45;;;;;;;22.67;15.17;;;;;;;2.41;82.97;94763.34;5077735;28;20421;-60
2020/12/11 06:46:20;;;;;;;23.00;14.50;;;;;;;2.27;82.01;94778.19;5073578;28;20791;-60
2020/12/11 06:49:05;;;;;;;21.27;15.30;;;;;;;2.19;82.29;94775.09;5075489;28;20417;-60
2020/12/11 06:51:32;;;;;;;20.23;14.80;;;;;;;1.86;83.80;94768.41;5074653;28;20426;-59
2020/12/11 06:53:57;;;;;;;22.83;14.93;;;;;;;2.01;83.67;94768.88;5073122;28;20508;-61
2020/12/11 06:56:46;;;;;;;17.80;14.10;;;;;;;2.27;82.88;94767.03;5073302;28;20516;-60
2020/12/11 06:59:24;;;;;;;22.80;14.50;;;;;;;1.75;84.82;94773.47;5076060;28;20208;-60
2020/12/11 07:02:02;;;;;;;19.77;13.03;;;;;;;1.72;83.74;94769.50;5084973;28;20427;-60
2020/12/11 07:04:40;;;;;;;23.13;15.87;;;;;;;1.54;85.34;94763.47;5073545;28;20892;-59
2020/12/11 07:07:06;;;;;;;22.30;15.30;;;;;;;1.41;85.66;94763.56;5072848;28;20503;-60
2020/12/11 07:09:38;;;;;;;19.80;15.13;;;;;;;1.64;85.12;94753.44;5071980;28;20559;-60
2020/12/11 07:12:03;;;;;;;21.60;14.70;;;;;;;1.74;85.48;94749.38;5073223;28;20246;-59
2020/12/11 07:14:28;;;;;;;20.53;14.93;;;;;;;1.92;84.36;94741.66;5074844;28;20424;-59
2020/12/11 07:16:54;;;;;;;22.00;14.40;;;;;;;1.93;83.57;94750.22;5073102;28;20256;-60
2020/12/11 07:19:20;;;;;;;21.40;15.40;;;;;;;1.70;84.66;94737.09;5078273;28;20203;-59
2020/12/11 07:21:46;;;;;;;22.40;13.97;;;;;;;1.53;85.36;94741.19;5073335;28;20206;-60
2020/12/11 07:24:12;;;;;;;19.57;13.90;;;;;;;1.57;85.35;94742.34;5073012;28;20172;-59
2020/12/11 07:26:37;;;;;;;23.27;14.60;;;;;;;1.67;84.56;94740.88;5075306;28;20519;-59
2020/12/11 07:29:13;;;;;;;21.77;15.30;;;;;;;1.47;85.62;94724.69;5073901;28;20210;-60
2020/12/11 07:31:41;;;;;;;19.63;13.17;;;;;;;1.29;86.86;94716.88;5071389;28;20228;-59
2020/12/11 07:34:16;;;;;;;19.87;12.70;;;;;;;1.57;85.95;94714.69;5092598;28;20427;-60
2020/12/11 07:36:56;;;;;;;17.27;12.67;;;;;;;1.32;86.20;94706.13;5079763;28;20798;-59
2020/12/11 07:39:29;;;;;;;20.47;14.20;;;;;;;1.22;86.10;94712.72;5076820;28;20443;-60
2020/12/11 07:41:56;;;;;;;17.40;13.00;;;;;;;1.11;87.21;94716.78;5089757;28;20802;-59
2020/12/11 07:44:24;;;;;;;18.97;13.70;;;;;;;1.40;86.75;94711.03;5095583;28;20431;-59
2020/12/11 07:46:54;;;;;;;18.27;14.03;;;;;;;1.27;86.68;94710.34;5093982;28;20428;-59
2020/12/11 07:49:20;;;;;;;18.40;13.73;;;;;;;1.63;85.05;94710.47;5077022;28;20424;-60
2020/12/11 07:51:50;;;;;;;20.63;14.43;;;;;;;1.73;83.99;94714.16;5093670;28;20937;-59
2020/12/11 07:54:16;;;;;;;20.63;14.03;;;;;;;1.65;85.06;94714.41;5088481;28;20189;-60
2020/12/11 07:56:42;;;;;;;20.20;14.60;;;;;;;1.67;84.51;94711.59;5094691;28;20417;-58
2020/12/11 07:59:14;;;;;;;20.50;14.03;;;;;;;1.65;85.07;94711.81;5090416;28;20746;-59
2020/12/11 08:01:46;;;;;;;20.40;13.87;;;;;;;1.79;84.72;94712.50;5082979;28;20181;-60
2020/12/11 08:04:14;;;;;;;19.67;13.93;;;;;;;1.92;84.01;94708.00;5096892;28;20874;-60
2020/12/11 08:06:40;;;;;;;19.07;14.20;;;;;;;1.82;85.03;94697.34;5096586;28;20778;-58
2020/12/11 08:09:14;;;;;;;20.60;13.90;;;;;;;2.27;83.06;94694.50;5085292;28;20440;-59
2020/12/11 08:11:43;;;;;;;22.03;14.70;;;;;;;2.42;82.12;94692.34;5091760;28;20543;-58
2020/12/11 08:14:09;;;;;;;20.67;14.83;;;;;;;2.08;82.75;94696.31;5086180;28;20470;-58
2020/12/11 08:16:35;;;;;;;19.33;13.30;;;;;;;2.19;81.79;94695.59;5075846;28;20413;-58
2020/12/11 08:19:01;;;;;;;21.27;15.30;;;;;;;2.31;81.78;94695.66;5089688;28;20331;-58
2020/12/11 08:21:30;;;;;;;21.07;14.57;;;;;;;2.21;82.26;94700.56;5076392;28;20660;-58
2020/12/11 08:23:56;;;;;;;23.70;15.70;;;;;;;2.07;82.62;94698.09;5076789;28;20887;-58
2020/12/11 08:26:22;;;;;;;24.77;17.80;;;;;;;2.28;82.46;94701.28;5075790;28;20425;-59
2020/12/11 08:28:50;;;;;;;20.30;13.70;;;;;;;2.04;82.18;94708.91;5074569;28;20779;-58
2020/12/11 08:31:19;;;;;;;22.30;15.43;;;;;;;2.05;82.41;94710.47;5075018;28;20659;-58
2020/12/11 08:33:45;;;;;;;20.40;12.93;;;;;;;2.17;82.78;94709.75;5075007;28;20457;-55
2020/12/11 08:36:22;;;;;;;19.70;13.83;;;;;;;2.14;82.95;94702.44;5074744;28;20508;-54
2020/12/11 08:39:11;;;;;;;20.07;14.80;;;;;;;2.48;82.03;94700.03;5074639;28;20209;-54
2020/12/11 08:41:45;;;;;;;17.93;13.20;;;;;;;2.55;80.94;94699.97;5074891;28;20897;-54
2020/12/11 08:52:30;;;;;;;18.13;13.77;;;;;;;2.94;79.29;94696.88;5056353;28;20440;-55
2020/12/11 08:54:56;;;;;;;16.90;10.90;;;;;;;3.05;78.56;94672.81;5074656;28;20405;-54
2020/12/11 08:57:24;;;;;;;19.20;13.80;;;;;;;3.30;78.84;94676.03;5074184;28;20196;-54
2020/12/11 08:59:49;;;;;;;16.93;13.00;;;;;;;3.38;78.81;94670.53;5074492;28;20431;-55
2020/12/11 09:02:15;;;;;;;19.80;13.80;;;;;;;3.74;77.58;94662.56;5074622;28;20415;-55
2020/12/11 09:04:40;;;;;;;17.17;12.33;;;;;;;3.68;76.58;94660.84;5074442;28;20176;-54
2020/12/11 09:07:06;;;;;;;15.40;12.00;;;;;;;3.62;76.81;94668.75;5073798;28;20169;-59
2020/12/11 09:09:31;;;;;;;18.47;13.40;;;;;;;3.64;78.11;94669.31;5071335;28;20616;-59
2020/12/11 09:11:56;;;;;;;17.00;12.40;;;;;;;3.79;76.31;94667.06;5070560;28;20207;-59
2020/12/11 09:14:22;;;;;;;17.70;13.50;;;;;;;3.84;76.17;94672.38;5070777;28;20627;-59
2020/12/11 09:16:47;;;;;;;17.90;12.47;;;;;;;4.03;75.73;94671.25;5069500;28;20187;-60
2020/12/11 09:19:14;;;;;;;14.13;10.60;;;;;;;3.96;75.77;94673.16;5070641;28;20587;-59
2020/12/11 09:21:40;;;;;;;14.30;11.53;;;;;;;4.10;74.95;94675.31;5070363;28;20190;-60
2020/12/11 09:24:05;;;;;;;18.27;12.60;;;;;;;4.39;74.36;94672.78;5070672;28;20411;-59
2020/12/11 09:26:31;;;;;;;13.10;9.90;;;;;;;4.24;73.69;94675.09;5070571;28;20167;-60
2020/12/11 09:32:00;;;;;;;15.50;11.10;;;;;;;4.12;75.39;94691.47;5065989;28;20185;-60
2020/12/11 09:34:26;;;;;;;14.37;10.97;;;;;;;3.75;76.85;94679.69;5076008;28;20755;-58
2020/12/11 09:36:51;;;;;;;15.27;10.30;;;;;;;3.91;76.17;94679.03;5090873;28;20416;-60
2020/12/11 09:39:17;;;;;;;13.80;10.57;;;;;;;4.26;76.35;94673.03;5089048;28;20201;-58
2020/12/11 09:41:54;;;;;;;16.80;12.60;;;;;;;4.40;74.58;94667.38;5074626;28;20196;-59
2020/12/11 09:44:46;;;;;;;15.47;12.17;;;;;;;4.32;74.56;94679.91;5074764;28;20179;-60
2020/12/11 09:50:11;;;;;;;13.20;10.00;;;;;;;4.18;76.40;94669.75;5074700;28;20787;-61
2020/12/11 09:52:50;;;;;;;15.37;11.43;;;;;;;4.47;75.75;94670.63;5074635;28;20415;-63
2020/12/11 09:55:16;;;;;;;15.50;11.43;;;;;;;4.42;76.80;94656.75;5074347;28;20875;-61
2020/12/11 09:57:41;;;;;;;13.27;10.77;;;;;;;4.30;75.99;94656.75;5072392;28;20533;-63
2020/12/11 10:00:07;;;;;;;13.50;10.60;;;;;;;4.20;77.41;94649.53;5072832;28;20196;-61
2020/12/11 10:05:04;;;;;;;19.60;13.43;;;;;;;4.82;75.72;94642.69;5074324;28;20405;-62
2020/12/11 10:07:29;;;;;;;15.70;12.27;;;;;;;4.94;75.29;94642.66;5074006;28;20412;-63
2020/12/11 10:09:55;;;;;;;19.30;13.90;;;;;;;4.77;75.30;94628.81;5074239;28;20917;-61
2020/12/11 10:12:23;;;;;;;15.33;11.40;;;;;;;5.25;75.56;94621.34;5074007;28;20518;-64
2020/12/11 10:14:56;;;;;;;15.80;11.80;;;;;;;5.40;74.28;94626.78;5073852;28;20179;-61
2020/12/11 10:17:22;;;;;;;16.17;12.37;;;;;;;5.39;73.45;94625.22;5073443;28;21016;-62
2020/12/11 10:19:48;;;;;;;15.33;11.87;;;;;;;5.63;74.37;94615.41;5073923;28;20952;-61
2020/12/11 10:22:13;;;;;;;16.17;11.57;;;;;;;5.83;72.48;94620.97;5074141;28;20227;-61
2020/12/11 10:24:39;;;;;;;15.63;11.27;;;;;;;5.89;72.86;94606.94;5074096;28;20413;-64
2020/12/11 10:27:04;;;;;;;13.43;10.53;;;;;;;6.10;72.08;94616.66;5073586;28;20190;-64
2020/12/11 10:29:30;;;;;;;13.83;11.77;;;;;;;5.91;71.27;94621.34;5073495;28;20190;-61
2020/12/11 10:31:55;;;;;;;13.87;11.23;;;;;;;6.02;71.31;94617.03;5073649;28;20177;-61
2020/12/11 10:34:20;;;;;;;11.60;10.40;;;;;;;6.05;71.39;94609.53;5073530;28;20179;-61
2020/12/11 10:36:46;;;;;;;14.90;11.67;;;;;;;6.07;71.68;94607.47;5073784;28;20184;-61
2020/12/11 10:39:12;;;;;;;14.73;11.87;;;;;;;6.10;70.98;94617.44;5072296;28;20271;-61
2020/12/11 10:41:37;;;;;;;15.60;11.40;;;;;;;5.27;73.68;94618.50;5073227;28;20182;-61
2020/12/11 10:44:03;;;;;;;16.37;12.27;;;;;;;5.32;74.30;94615.97;5073815;28;20419;-62
2020/12/11 10:46:29;;;;;;;13.70;11.23;;;;;;;5.33;73.97;94607.91;5073243;28;20169;-61
2020/12/11 10:48:54;;;;;;;14.10;11.10;;;;;;;5.02;74.53;94604.03;5072800;28;20518;-62
2020/12/11 10:51:20;;;;;;;14.87;12.20;;;;;;;5.55;73.94;94602.78;5073590;28;20579;-64
2020/12/11 10:53:47;;;;;;;13.67;11.67;;;;;;;4.82;75.77;94595.88;5073170;28;20186;-60
2020/12/11 10:56:13;;;;;;;14.43;11.27;;;;;;;5.13;76.60;94589.38;5073695;28;20173;-61
2020/12/11 10:58:39;;;;;;;12.40;10.87;;;;;;;5.62;75.24;94585.97;5072963;28;20945;-64
2020/12/11 11:01:10;;;;;;;16.13;11.93;;;;;;;5.80;74.29;94574.50;5073371;28;20405;-61
2020/12/11 11:03:37;;;;;;;14.50;10.50;;;;;;;5.96;73.44;94576.31;5073178;28;20471;-64
2020/12/11 11:06:12;;;;;;;16.53;12.10;;;;;;;6.15;71.62;94570.56;5073391;28;20410;-61
2020/12/11 11:08:45;;;;;;;13.57;11.03;;;;;;;6.25;72.81;94565.47;5072408;28;20451;-62
2020/12/11 11:11:10;;;;;;;13.57;11.03;;;;;;;6.44;72.21;94563.34;5072970;28;20439;-62
2020/12/11 11:13:50;;;;;;;14.57;11.43;;;;;;;6.20;71.71;94569.84;5073484;28;20488;-61
2020/12/11 11:16:22;;;;;;;12.20;10.90;;;;;;;6.24;72.46;94547.47;5073249;28;20224;-64
2020/12/11 11:18:54;;;;;;;12.73;10.03;;;;;;;6.26;71.72;94545.41;5073203;28;20860;-61
2020/12/11 11:21:47;;;;;;;17.80;12.97;;;;;;;6.32;72.45;94541.03;5073128;28;20421;-65
2020/12/11 11:25:01;;;;;;;12.90;11.00;;;;;;;6.39;70.87;94533.81;5072783;28;20412;-65
2020/12/11 11:29:30;;;;;;;13.30;11.63;;;;;;;6.67;71.07;94520.53;5073084;28;20508;-62
2020/12/11 11:31:56;;;;;;;13.47;11.17;;;;;;;6.83;69.42;94509.97;5073212;28;20201;-64
2020/12/11 11:34:21;;;;;;;13.43;10.63;;;;;;;6.63;70.81;94501.97;5073163;28;20195;-62
2020/12/11 11:36:51;;;;;;;14.57;11.70;;;;;;;6.99;69.46;94508.31;5072399;28;20687;-61
2020/12/11 11:39:17;;;;;;;11.97;9.80;;;;;;;7.03;68.60;94497.09;5072506;28;20664;-64
2020/12/11 11:41:49;;;;;;;13.90;10.67;;;;;;;6.86;69.01;94501.66;5073134;28;20429;-61
2020/12/11 11:46:44;;;;;;;13.37;10.57;;;;;;;7.50;68.11;94483.31;5072361;28;20429;-64
2020/12/11 11:49:12;;;;;;;12.37;10.27;;;;;;;7.36;66.78;94487.41;5072745;28;20425;-61